Disclaimer

Please do not use the information listed here in-flight or in-navigation, as they are not provided to us by the airports but are provided by volunteers, so they might be outdated.

Search


Regions


Airport information page

Radio informations:
Common traffic adv. frequency (CTAF) - 122.8 MHz

Airport informations:
Latitude: 19° 59' 03.66" N
Longitude: 042° 37' 15.17" E
Elevation: 3887 feet - 1185 meters
Operating hours: 24 hour operations
Operating agency: Military-civil joint use airport
Timezone: UTC+3
Fuel: N/A

Runway information:
18/36 - 10007 x 147 feet< - >3050 x 45 meters

Recent METARs:
OEBH 190100Z 05005KT CAVOK 17/13 Q1020 NOSIG
OEBH 190100Z 05005KT CAVOK 17/13 Q1020 NOSIG
OEBH 190200Z 07003KT CAVOK 16/14 Q1020 NOSIG

Airport on the map: